sensor_id;sensor_type;location;lat;lon;timestamp;temperature;humidity
9939;DHT22;5008;50.656;7.188;2022-08-21T00:00:32;17.10;99.90
9939;DHT22;5008;50.656;7.188;2022-08-21T00:03:01;17.10;99.90
9939;DHT22;5008;50.656;7.188;2022-08-21T00:05:32;17.10;99.90
9939;DHT22;5008;50.656;7.188;2022-08-21T00:07:59;17.10;99.90
9939;DHT22;5008;50.656;7.188;2022-08-21T00:10:26;17.10;99.90
9939;DHT22;5008;50.656;7.188;2022-08-21T00:12:53;17.10;99.90
9939;DHT22;5008;50.656;7.188;2022-08-21T00:15:25;17.10;99.90
9939;DHT22;5008;50.656;7.188;2022-08-21T00:17:53;17.00;99.90
9939;DHT22;5008;50.656;7.188;2022-08-21T00:20:20;16.90;99.90
9939;DHT22;5008;50.656;7.188;2022-08-21T00:22:49;16.90;99.90
9939;DHT22;5008;50.656;7.188;2022-08-21T00:25:17;16.90;99.90
9939;DHT22;5008;50.656;7.188;2022-08-21T00:27:44;16.90;99.90
9939;DHT22;5008;50.656;7.188;2022-08-21T00:30:13;16.90;99.90
9939;DHT22;5008;50.656;7.188;2022-08-21T00:32:41;16.90;99.90
9939;DHT22;5008;50.656;7.188;2022-08-21T00:35:11;16.90;99.90
9939;DHT22;5008;50.656;7.188;2022-08-21T00:37:38;16.90;99.90
9939;DHT22;5008;50.656;7.188;2022-08-21T00:40:11;16.80;99.90
9939;DHT22;5008;50.656;7.188;2022-08-21T00:42:38;16.70;99.90
9939;DHT22;5008;50.656;7.188;2022-08-21T00:45:07;16.70;99.90
9939;DHT22;5008;50.656;7.188;2022-08-21T00:47:34;16.70;99.90
9939;DHT22;5008;50.656;7.188;2022-08-21T00:50:01;16.70;99.90
9939;DHT22;5008;50.656;7.188;2022-08-21T00:52:30;16.70;99.90
9939;DHT22;5008;50.656;7.188;2022-08-21T00:54:59;16.70;99.90
9939;DHT22;5008;50.656;7.188;2022-08-21T00:57:30;16.80;99.90
9939;DHT22;5008;50.656;7.188;2022-08-21T01:00:01;16.70;99.90
9939;DHT22;5008;50.656;7.188;2022-08-21T01:02:29;16.60;99.90
9939;DHT22;5008;50.656;7.188;2022-08-21T01:04:55;16.60;99.90
9939;DHT22;5008;50.656;7.188;2022-08-21T01:07:22;16.50;99.90
9939;DHT22;5008;50.656;7.188;2022-08-21T01:09:50;16.40;99.90
9939;DHT22;5008;50.656;7.188;2022-08-21T01:12:18;16.50;99.90
9939;DHT22;5008;50.656;7.188;2022-08-21T01:14:46;16.50;99.90
9939;DHT22;5008;50.656;7.188;2022-08-21T01:17:14;16.50;99.90
9939;DHT22;5008;50.656;7.188;2022-08-21T01:19:42;16.50;99.90
9939;DHT22;5008;50.656;7.188;2022-08-21T01:22:10;16.50;99.90
9939;DHT22;5008;50.656;7.188;2022-08-21T01:24:37;16.40;99.90
9939;DHT22;5008;50.656;7.188;2022-08-21T01:27:04;16.40;99.90
9939;DHT22;5008;50.656;7.188;2022-08-21T01:29:36;16.40;99.90
9939;DHT22;5008;50.656;7.188;2022-08-21T01:32:06;16.40;99.90
9939;DHT22;5008;50.656;7.188;2022-08-21T01:34:37;16.40;99.90
9939;DHT22;5008;50.656;7.188;2022-08-21T01:37:04;16.40;99.90
9939;DHT22;5008;50.656;7.188;2022-08-21T01:39:34;16.30;99.90
9939;DHT22;5008;50.656;7.188;2022-08-21T01:42:01;16.40;99.90
9939;DHT22;5008;50.656;7.188;2022-08-21T01:44:28;16.30;99.90
9939;DHT22;5008;50.656;7.188;2022-08-21T01:46:55;16.30;99.90
9939;DHT22;5008;50.656;7.188;2022-08-21T01:49:23;16.20;99.90
9939;DHT22;5008;50.656;7.188;2022-08-21T01:51:50;16.20;99.90
9939;DHT22;5008;50.656;7.188;2022-08-21T01:54:17;16.10;99.90
9939;DHT22;5008;50.656;7.188;2022-08-21T01:56:48;16.00;99.90
9939;DHT22;5008;50.656;7.188;2022-08-21T01:59:16;15.90;99.90
9939;DHT22;5008;50.656;7.188;2022-08-21T02:01:43;15.90;99.90
9939;DHT22;5008;50.656;7.188;2022-08-21T02:04:10;15.90;99.90
9939;DHT22;5008;50.656;7.188;2022-08-21T02:06:37;15.80;99.90
9939;DHT22;5008;50.656;7.188;2022-08-21T02:09:06;15.90;99.90
9939;DHT22;5008;50.656;7.188;2022-08-21T02:11:33;15.80;99.90
9939;DHT22;5008;50.656;7.188;2022-08-21T02:14:03;15.70;99.90
9939;DHT22;5008;50.656;7.188;2022-08-21T02:16:29;15.60;99.90
9939;DHT22;5008;50.656;7.188;2022-08-21T02:18:56;15.60;99.90
9939;DHT22;5008;50.656;7.188;2022-08-21T02:21:23;15.70;99.90
9939;DHT22;5008;50.656;7.188;2022-08-21T02:23:50;15.70;99.90
9939;DHT22;5008;50.656;7.188;2022-08-21T02:26:17;15.70;99.90
9939;DHT22;5008;50.656;7.188;2022-08-21T02:28:44;15.70;99.90
9939;DHT22;5008;50.656;7.188;2022-08-21T02:31:13;15.70;99.90
9939;DHT22;5008;50.656;7.188;2022-08-21T02:33:40;15.70;99.90
9939;DHT22;5008;50.656;7.188;2022-08-21T02:36:08;15.70;99.90
9939;DHT22;5008;50.656;7.188;2022-08-21T02:38:36;15.70;99.90
9939;DHT22;5008;50.656;7.188;2022-08-21T02:41:04;15.70;99.90
9939;DHT22;5008;50.656;7.188;2022-08-21T02:43:31;15.60;99.90
9939;DHT22;5008;50.656;7.188;2022-08-21T02:45:58;15.70;99.90
9939;DHT22;5008;50.656;7.188;2022-08-21T02:48:28;15.70;99.90
9939;DHT22;5008;50.656;7.188;2022-08-21T02:50:59;15.70;99.90
9939;DHT22;5008;50.656;7.188;2022-08-21T02:53:28;15.60;99.90
9939;DHT22;5008;50.656;7.188;2022-08-21T02:55:57;15.60;99.90
9939;DHT22;5008;50.656;7.188;2022-08-21T02:58:26;15.50;99.90
9939;DHT22;5008;50.656;7.188;2022-08-21T03:00:53;15.70;99.90
9939;DHT22;5008;50.656;7.188;2022-08-21T03:03:20;15.60;99.90
9939;DHT22;5008;50.656;7.188;2022-08-21T03:05:49;15.60;99.90
9939;DHT22;5008;50.656;7.188;2022-08-21T03:08:17;15.50;99.90
9939;DHT22;5008;50.656;7.188;2022-08-21T03:10:46;15.50;99.90
9939;DHT22;5008;50.656;7.188;2022-08-21T03:13:14;15.50;99.90
9939;DHT22;5008;50.656;7.188;2022-08-21T03:15:41;15.50;99.90
9939;DHT22;5008;50.656;7.188;2022-08-21T03:18:09;15.40;99.90
9939;DHT22;5008;50.656;7.188;2022-08-21T03:20:37;15.60;99.90
9939;DHT22;5008;50.656;7.188;2022-08-21T03:23:06;15.50;99.90
9939;DHT22;5008;50.656;7.188;2022-08-21T03:25:34;15.50;99.90
9939;DHT22;5008;50.656;7.188;2022-08-21T03:28:03;15.50;99.90
9939;DHT22;5008;50.656;7.188;2022-08-21T03:30:30;15.40;99.90
9939;DHT22;5008;50.656;7.188;2022-08-21T03:32:57;15.40;99.90
9939;DHT22;5008;50.656;7.188;2022-08-21T03:35:25;15.40;99.90
9939;DHT22;5008;50.656;7.188;2022-08-21T03:37:52;15.40;99.90
9939;DHT22;5008;50.656;7.188;2022-08-21T03:40:22;15.30;99.90
9939;DHT22;5008;50.656;7.188;2022-08-21T03:42:49;15.40;99.90
9939;DHT22;5008;50.656;7.188;2022-08-21T03:45:17;15.30;99.90
9939;DHT22;5008;50.656;7.188;2022-08-21T03:47:52;15.30;99.90
9939;DHT22;5008;50.656;7.188;2022-08-21T03:50:21;15.20;99.90
9939;DHT22;5008;50.656;7.188;2022-08-21T03:52:48;15.20;99.90
9939;DHT22;5008;50.656;7.188;2022-08-21T03:55:14;15.20;99.90
9939;DHT22;5008;50.656;7.188;2022-08-21T03:57:43;15.20;99.90
9939;DHT22;5008;50.656;7.188;2022-08-21T04:00:11;15.20;99.90
9939;DHT22;5008;50.656;7.188;2022-08-21T04:02:39;15.20;99.90
9939;DHT22;5008;50.656;7.188;2022-08-21T04:05:07;15.20;99.90
9939;DHT22;5008;50.656;7.188;2022-08-21T04:07:34;15.20;99.90
9939;DHT22;5008;50.656;7.188;2022-08-21T04:10:00;15.10;99.90
9939;DHT22;5008;50.656;7.188;2022-08-21T04:12:27;15.10;99.90
9939;DHT22;5008;50.656;7.188;2022-08-21T04:14:55;15.20;99.90
9939;DHT22;5008;50.656;7.188;2022-08-21T04:17:22;15.20;99.90
9939;DHT22;5008;50.656;7.188;2022-08-21T04:19:49;15.20;99.90
9939;DHT22;5008;50.656;7.188;2022-08-21T04:22:16;15.20;99.90
9939;DHT22;5008;50.656;7.188;2022-08-21T04:24:43;15.10;99.90
9939;DHT22;5008;50.656;7.188;2022-08-21T04:27:10;15.20;99.90
9939;DHT22;5008;50.656;7.188;2022-08-21T04:29:37;15.20;99.90
9939;DHT22;5008;50.656;7.188;2022-08-21T04:32:05;15.10;99.90
9939;DHT22;5008;50.656;7.188;2022-08-21T04:34:32;15.10;99.90
9939;DHT22;5008;50.656;7.188;2022-08-21T04:36:59;15.10;99.90
9939;DHT22;5008;50.656;7.188;2022-08-21T04:39:26;15.10;99.90
9939;DHT22;5008;50.656;7.188;2022-08-21T04:41:53;15.10;99.90
9939;DHT22;5008;50.656;7.188;2022-08-21T04:44:19;15.10;99.90
9939;DHT22;5008;50.656;7.188;2022-08-21T04:46:46;15.10;99.90
9939;DHT22;5008;50.656;7.188;2022-08-21T04:49:14;15.00;99.90
9939;DHT22;5008;50.656;7.188;2022-08-21T04:51:41;15.00;99.90
9939;DHT22;5008;50.656;7.188;2022-08-21T04:54:10;15.20;99.90
9939;DHT22;5008;50.656;7.188;2022-08-21T04:56:42;15.10;99.90
9939;DHT22;5008;50.656;7.188;2022-08-21T04:59:16;15.00;99.90
9939;DHT22;5008;50.656;7.188;2022-08-21T05:01:44;14.90;99.90
9939;DHT22;5008;50.656;7.188;2022-08-21T05:04:16;14.90;99.90
9939;DHT22;5008;50.656;7.188;2022-08-21T05:06:46;14.90;99.90
9939;DHT22;5008;50.656;7.188;2022-08-21T05:09:15;14.90;99.90
9939;DHT22;5008;50.656;7.188;2022-08-21T05:11:43;15.00;99.90
9939;DHT22;5008;50.656;7.188;2022-08-21T05:14:10;15.00;99.90
9939;DHT22;5008;50.656;7.188;2022-08-21T05:16:37;14.90;99.90
9939;DHT22;5008;50.656;7.188;2022-08-21T05:19:06;15.00;99.90
9939;DHT22;5008;50.656;7.188;2022-08-21T05:21:35;15.00;99.90
9939;DHT22;5008;50.656;7.188;2022-08-21T05:24:02;15.10;99.90
9939;DHT22;5008;50.656;7.188;2022-08-21T05:26:30;15.20;99.90
9939;DHT22;5008;50.656;7.188;2022-08-21T05:28:57;15.40;99.90
9939;DHT22;5008;50.656;7.188;2022-08-21T05:31:24;15.40;99.90
9939;DHT22;5008;50.656;7.188;2022-08-21T05:33:51;15.50;99.90
9939;DHT22;5008;50.656;7.188;2022-08-21T05:36:17;15.70;99.90
9939;DHT22;5008;50.656;7.188;2022-08-21T05:38:46;15.80;99.90
9939;DHT22;5008;50.656;7.188;2022-08-21T05:41:13;16.00;99.90
9939;DHT22;5008;50.656;7.188;2022-08-21T05:43:40;16.20;99.90
9939;DHT22;5008;50.656;7.188;2022-08-21T05:46:07;16.40;99.90
9939;DHT22;5008;50.656;7.188;2022-08-21T05:48:35;16.60;99.90
9939;DHT22;5008;50.656;7.188;2022-08-21T05:51:05;16.80;99.90
9939;DHT22;5008;50.656;7.188;2022-08-21T05:53:32;17.10;99.90
9939;DHT22;5008;50.656;7.188;2022-08-21T05:56:01;17.20;99.90
9939;DHT22;5008;50.656;7.188;2022-08-21T05:58:30;17.30;99.90
9939;DHT22;5008;50.656;7.188;2022-08-21T06:00:58;17.40;99.90
9939;DHT22;5008;50.656;7.188;2022-08-21T06:03:27;17.50;99.90
9939;DHT22;5008;50.656;7.188;2022-08-21T06:05:55;17.60;99.90
9939;DHT22;5008;50.656;7.188;2022-08-21T06:08:22;17.80;99.90
9939;DHT22;5008;50.656;7.188;2022-08-21T06:10:51;17.80;99.90
9939;DHT22;5008;50.656;7.188;2022-08-21T06:13:20;18.00;99.90
9939;DHT22;5008;50.656;7.188;2022-08-21T06:15:48;18.10;99.90
9939;DHT22;5008;50.656;7.188;2022-08-21T06:18:16;18.10;99.90
9939;DHT22;5008;50.656;7.188;2022-08-21T06:20:44;18.10;99.90
9939;DHT22;5008;50.656;7.188;2022-08-21T06:23:11;18.20;99.90
9939;DHT22;5008;50.656;7.188;2022-08-21T06:25:38;18.30;99.90
9939;DHT22;5008;50.656;7.188;2022-08-21T06:28:07;18.40;99.90
9939;DHT22;5008;50.656;7.188;2022-08-21T06:30:37;18.40;99.90
9939;DHT22;5008;50.656;7.188;2022-08-21T06:33:04;18.40;99.90
9939;DHT22;5008;50.656;7.188;2022-08-21T06:35:32;18.50;99.90
9939;DHT22;5008;50.656;7.188;2022-08-21T06:37:59;18.30;99.90
9939;DHT22;5008;50.656;7.188;2022-08-21T06:40:27;18.20;99.90
9939;DHT22;5008;50.656;7.188;2022-08-21T06:42:54;18.00;99.90
9939;DHT22;5008;50.656;7.188;2022-08-21T06:45:21;18.00;99.90
9939;DHT22;5008;50.656;7.188;2022-08-21T06:47:49;18.00;99.90
9939;DHT22;5008;50.656;7.188;2022-08-21T06:50:16;18.00;99.90
9939;DHT22;5008;50.656;7.188;2022-08-21T06:52:43;18.10;99.90
9939;DHT22;5008;50.656;7.188;2022-08-21T06:55:10;18.20;99.90
9939;DHT22;5008;50.656;7.188;2022-08-21T06:57:37;18.20;99.90
9939;DHT22;5008;50.656;7.188;2022-08-21T07:00:05;18.30;99.90
9939;DHT22;5008;50.656;7.188;2022-08-21T07:02:33;18.40;99.90
9939;DHT22;5008;50.656;7.188;2022-08-21T07:05:02;18.50;99.90
9939;DHT22;5008;50.656;7.188;2022-08-21T07:07:29;18.50;99.90
9939;DHT22;5008;50.656;7.188;2022-08-21T07:09:55;18.60;99.90
9939;DHT22;5008;50.656;7.188;2022-08-21T07:12:22;18.80;99.90
9939;DHT22;5008;50.656;7.188;2022-08-21T07:14:51;18.90;99.90
9939;DHT22;5008;50.656;7.188;2022-08-21T07:17:18;18.80;99.90
9939;DHT22;5008;50.656;7.188;2022-08-21T07:19:45;18.80;99.90
9939;DHT22;5008;50.656;7.188;2022-08-21T07:22:15;18.80;99.90
9939;DHT22;5008;50.656;7.188;2022-08-21T07:24:42;18.80;99.90
9939;DHT22;5008;50.656;7.188;2022-08-21T07:27:09;18.90;99.90
9939;DHT22;5008;50.656;7.188;2022-08-21T07:29:36;18.90;99.90
9939;DHT22;5008;50.656;7.188;2022-08-21T07:32:03;18.90;99.90
9939;DHT22;5008;50.656;7.188;2022-08-21T07:34:30;18.90;99.90
9939;DHT22;5008;50.656;7.188;2022-08-21T07:36:57;19.00;99.90
9939;DHT22;5008;50.656;7.188;2022-08-21T07:39:26;19.10;99.90
9939;DHT22;5008;50.656;7.188;2022-08-21T07:41:53;19.10;99.90
9939;DHT22;5008;50.656;7.188;2022-08-21T07:44:20;19.10;99.90
9939;DHT22;5008;50.656;7.188;2022-08-21T07:46:47;19.20;99.90
9939;DHT22;5008;50.656;7.188;2022-08-21T07:49:14;19.30;99.90
9939;DHT22;5008;50.656;7.188;2022-08-21T07:51:40;19.30;99.90
9939;DHT22;5008;50.656;7.188;2022-08-21T07:54:07;19.40;99.90
9939;DHT22;5008;50.656;7.188;2022-08-21T07:56:36;19.50;99.90
9939;DHT22;5008;50.656;7.188;2022-08-21T07:59:03;19.50;99.90
9939;DHT22;5008;50.656;7.188;2022-08-21T08:01:30;19.50;99.90
9939;DHT22;5008;50.656;7.188;2022-08-21T08:03:57;19.60;99.90
9939;DHT22;5008;50.656;7.188;2022-08-21T08:06:24;19.50;99.90
9939;DHT22;5008;50.656;7.188;2022-08-21T08:08:51;19.50;99.90
9939;DHT22;5008;50.656;7.188;2022-08-21T08:11:18;19.60;99.90
9939;DHT22;5008;50.656;7.188;2022-08-21T08:13:49;19.60;99.90
9939;DHT22;5008;50.656;7.188;2022-08-21T08:16:18;19.70;99.90
9939;DHT22;5008;50.656;7.188;2022-08-21T08:18:45;19.80;99.90
9939;DHT22;5008;50.656;7.188;2022-08-21T08:21:13;19.80;99.90
9939;DHT22;5008;50.656;7.188;2022-08-21T08:23:40;19.90;99.90
9939;DHT22;5008;50.656;7.188;2022-08-21T08:26:06;20.00;99.90
9939;DHT22;5008;50.656;7.188;2022-08-21T08:28:33;20.10;99.90
9939;DHT22;5008;50.656;7.188;2022-08-21T08:34:18;20.30;99.90
9939;DHT22;5008;50.656;7.188;2022-08-21T08:36:47;20.30;99.90
9939;DHT22;5008;50.656;7.188;2022-08-21T08:39:14;20.40;99.90
9939;DHT22;5008;50.656;7.188;2022-08-21T08:41:41;20.40;99.90
9939;DHT22;5008;50.656;7.188;2022-08-21T08:44:12;20.40;99.90
9939;DHT22;5008;50.656;7.188;2022-08-21T08:46:41;20.50;99.90
9939;DHT22;5008;50.656;7.188;2022-08-21T08:49:13;20.50;99.90
9939;DHT22;5008;50.656;7.188;2022-08-21T08:51:47;20.60;99.90
9939;DHT22;5008;50.656;7.188;2022-08-21T08:54:21;20.60;99.90
9939;DHT22;5008;50.656;7.188;2022-08-21T08:56:51;20.70;99.90
9939;DHT22;5008;50.656;7.188;2022-08-21T08:59:25;20.70;99.90
9939;DHT22;5008;50.656;7.188;2022-08-21T09:01:53;20.80;99.90
9939;DHT22;5008;50.656;7.188;2022-08-21T09:04:24;20.90;99.90
9939;DHT22;5008;50.656;7.188;2022-08-21T09:07:09;21.00;99.90
9939;DHT22;5008;50.656;7.188;2022-08-21T09:09:48;21.10;99.90
9939;DHT22;5008;50.656;7.188;2022-08-21T09:12:29;21.10;99.90
9939;DHT22;5008;50.656;7.188;2022-08-21T09:15:05;21.20;99.90
9939;DHT22;5008;50.656;7.188;2022-08-21T09:17:39;21.30;99.90
9939;DHT22;5008;50.656;7.188;2022-08-21T09:20:19;21.40;99.90
9939;DHT22;5008;50.656;7.188;2022-08-21T09:23:00;21.50;99.90
9939;DHT22;5008;50.656;7.188;2022-08-21T09:25:34;21.60;99.90
9939;DHT22;5008;50.656;7.188;2022-08-21T09:28:07;21.60;99.90
9939;DHT22;5008;50.656;7.188;2022-08-21T09:30:36;21.70;99.90
9939;DHT22;5008;50.656;7.188;2022-08-21T09:33:06;21.70;99.90
9939;DHT22;5008;50.656;7.188;2022-08-21T09:35:33;21.80;99.90
9939;DHT22;5008;50.656;7.188;2022-08-21T09:38:06;21.90;99.90
9939;DHT22;5008;50.656;7.188;2022-08-21T09:40:37;21.90;99.90
9939;DHT22;5008;50.656;7.188;2022-08-21T09:43:10;21.90;99.90
9939;DHT22;5008;50.656;7.188;2022-08-21T09:45:43;22.10;99.90
9939;DHT22;5008;50.656;7.188;2022-08-21T09:48:13;22.10;99.90
9939;DHT22;5008;50.656;7.188;2022-08-21T09:50:41;22.20;99.90
9939;DHT22;5008;50.656;7.188;2022-08-21T09:53:18;22.20;99.90
9939;DHT22;5008;50.656;7.188;2022-08-21T09:55:51;22.30;99.90
9939;DHT22;5008;50.656;7.188;2022-08-21T09:58:38;22.30;99.90
9939;DHT22;5008;50.656;7.188;2022-08-21T10:01:15;22.30;99.90
9939;DHT22;5008;50.656;7.188;2022-08-21T10:03:43;22.40;99.90
9939;DHT22;5008;50.656;7.188;2022-08-21T10:06:19;22.50;99.90
9939;DHT22;5008;50.656;7.188;2022-08-21T10:08:48;22.50;99.90
9939;DHT22;5008;50.656;7.188;2022-08-21T10:11:16;22.60;99.90
9939;DHT22;5008;50.656;7.188;2022-08-21T10:13:50;22.70;99.90
9939;DHT22;5008;50.656;7.188;2022-08-21T10:16:28;22.70;99.90
9939;DHT22;5008;50.656;7.188;2022-08-21T10:19:06;22.70;99.90
9939;DHT22;5008;50.656;7.188;2022-08-21T10:21:38;22.80;99.90
9939;DHT22;5008;50.656;7.188;2022-08-21T10:24:16;22.90;99.90
9939;DHT22;5008;50.656;7.188;2022-08-21T10:26:52;22.90;99.90
9939;DHT22;5008;50.656;7.188;2022-08-21T10:29:37;23.10;99.90
9939;DHT22;5008;50.656;7.188;2022-08-21T10:32:13;23.20;99.90
9939;DHT22;5008;50.656;7.188;2022-08-21T10:34:50;23.30;99.90
9939;DHT22;5008;50.656;7.188;2022-08-21T10:37:25;23.20;99.90
9939;DHT22;5008;50.656;7.188;2022-08-21T10:40:06;23.30;99.90
9939;DHT22;5008;50.656;7.188;2022-08-21T10:42:37;23.30;99.90
9939;DHT22;5008;50.656;7.188;2022-08-21T10:45:18;23.40;99.90
9939;DHT22;5008;50.656;7.188;2022-08-21T10:47:53;23.40;99.90
9939;DHT22;5008;50.656;7.188;2022-08-21T10:50:29;23.50;99.60
9939;DHT22;5008;50.656;7.188;2022-08-21T10:53:09;23.60;99.70
9939;DHT22;5008;50.656;7.188;2022-08-21T10:55:46;23.70;99.70
9939;DHT22;5008;50.656;7.188;2022-08-21T10:58:21;23.70;99.10
9939;DHT22;5008;50.656;7.188;2022-08-21T11:00:53;23.70;99.50
9939;DHT22;5008;50.656;7.188;2022-08-21T11:03:24;23.70;99.50
9939;DHT22;5008;50.656;7.188;2022-08-21T11:05:54;23.80;99.00
9939;DHT22;5008;50.656;7.188;2022-08-21T11:08:23;23.80;99.40
9939;DHT22;5008;50.656;7.188;2022-08-21T11:10:59;23.90;99.80
9939;DHT22;5008;50.656;7.188;2022-08-21T11:13:32;23.90;98.40
9939;DHT22;5008;50.656;7.188;2022-08-21T11:16:07;23.90;98.00
9939;DHT22;5008;50.656;7.188;2022-08-21T11:18:41;23.90;97.90
9939;DHT22;5008;50.656;7.188;2022-08-21T11:21:27;23.90;97.50
9939;DHT22;5008;50.656;7.188;2022-08-21T11:23:59;23.90;98.20
9939;DHT22;5008;50.656;7.188;2022-08-21T11:26:35;23.90;98.00
9939;DHT22;5008;50.656;7.188;2022-08-21T11:29:10;24.00;98.00
9939;DHT22;5008;50.656;7.188;2022-08-21T11:31:46;24.00;98.70
9939;DHT22;5008;50.656;7.188;2022-08-21T11:34:23;24.00;97.60
9939;DHT22;5008;50.656;7.188;2022-08-21T11:36:59;24.00;97.40
9939;DHT22;5008;50.656;7.188;2022-08-21T11:39:36;24.00;96.90
9939;DHT22;5008;50.656;7.188;2022-08-21T11:42:14;23.90;99.10
9939;DHT22;5008;50.656;7.188;2022-08-21T11:44:49;24.00;96.70
9939;DHT22;5008;50.656;7.188;2022-08-21T11:47:24;24.00;96.40
9939;DHT22;5008;50.656;7.188;2022-08-21T11:50:02;24.00;97.20
9939;DHT22;5008;50.656;7.188;2022-08-21T11:52:34;24.00;98.20
9939;DHT22;5008;50.656;7.188;2022-08-21T11:55:05;24.10;96.70
9939;DHT22;5008;50.656;7.188;2022-08-21T11:57:40;24.10;96.40
9939;DHT22;5008;50.656;7.188;2022-08-21T12:00:13;24.10;96.40
9939;DHT22;5008;50.656;7.188;2022-08-21T12:02:45;24.20;96.60
9939;DHT22;5008;50.656;7.188;2022-08-21T12:05:25;24.20;96.40
9939;DHT22;5008;50.656;7.188;2022-08-21T12:08:02;24.20;98.40
9939;DHT22;5008;50.656;7.188;2022-08-21T12:10:33;24.20;96.20
9939;DHT22;5008;50.656;7.188;2022-08-21T12:13:08;24.30;96.10
9939;DHT22;5008;50.656;7.188;2022-08-21T12:15:37;24.20;96.40
9939;DHT22;5008;50.656;7.188;2022-08-21T12:18:07;24.10;99.20
9939;DHT22;5008;50.656;7.188;2022-08-21T12:20:58;24.20;96.80
9939;DHT22;5008;50.656;7.188;2022-08-21T12:23:28;24.30;95.80
9939;DHT22;5008;50.656;7.188;2022-08-21T12:28:44;24.40;99.90
9939;DHT22;5008;50.656;7.188;2022-08-21T12:31:19;24.30;99.40
9939;DHT22;5008;50.656;7.188;2022-08-21T12:33:52;24.40;96.20
9939;DHT22;5008;50.656;7.188;2022-08-21T12:36:23;24.50;95.50
9939;DHT22;5008;50.656;7.188;2022-08-21T12:38:54;24.50;97.90
9939;DHT22;5008;50.656;7.188;2022-08-21T12:41:26;24.40;98.00
9939;DHT22;5008;50.656;7.188;2022-08-21T12:43:58;24.50;97.10
9939;DHT22;5008;50.656;7.188;2022-08-21T12:46:30;24.50;97.90
9939;DHT22;5008;50.656;7.188;2022-08-21T12:49:03;24.60;96.20
9939;DHT22;5008;50.656;7.188;2022-08-21T12:51:38;24.70;95.80
9939;DHT22;5008;50.656;7.188;2022-08-21T12:54:09;24.90;94.10
9939;DHT22;5008;50.656;7.188;2022-08-21T12:56:36;24.80;95.80
9939;DHT22;5008;50.656;7.188;2022-08-21T12:59:11;24.70;97.80
9939;DHT22;5008;50.656;7.188;2022-08-21T13:01:45;24.90;96.90
9939;DHT22;5008;50.656;7.188;2022-08-21T13:04:19;25.00;96.10
9939;DHT22;5008;50.656;7.188;2022-08-21T13:06:53;25.10;94.20
9939;DHT22;5008;50.656;7.188;2022-08-21T13:09:26;24.90;96.50
9939;DHT22;5008;50.656;7.188;2022-08-21T13:11:53;25.00;96.00
9939;DHT22;5008;50.656;7.188;2022-08-21T13:14:26;24.90;96.00
9939;DHT22;5008;50.656;7.188;2022-08-21T13:16:55;24.90;95.50
9939;DHT22;5008;50.656;7.188;2022-08-21T13:19:22;24.80;95.10
9939;DHT22;5008;50.656;7.188;2022-08-21T13:21:50;24.70;95.00
9939;DHT22;5008;50.656;7.188;2022-08-21T13:24:21;24.70;95.90
9939;DHT22;5008;50.656;7.188;2022-08-21T13:26:49;24.60;94.80
9939;DHT22;5008;50.656;7.188;2022-08-21T13:29:19;24.40;99.90
9939;DHT22;5008;50.656;7.188;2022-08-21T13:31:49;24.50;96.70
9939;DHT22;5008;50.656;7.188;2022-08-21T13:34:18;24.60;95.60
9939;DHT22;5008;50.656;7.188;2022-08-21T13:36:46;24.70;96.00
9939;DHT22;5008;50.656;7.188;2022-08-21T13:39:17;24.80;95.30
9939;DHT22;5008;50.656;7.188;2022-08-21T13:41:48;25.10;96.30
9939;DHT22;5008;50.656;7.188;2022-08-21T13:44:17;25.20;94.80
9939;DHT22;5008;50.656;7.188;2022-08-21T13:46:45;25.50;95.80
9939;DHT22;5008;50.656;7.188;2022-08-21T13:49:16;26.30;93.90
9939;DHT22;5008;50.656;7.188;2022-08-21T13:51:44;26.40;93.40
9939;DHT22;5008;50.656;7.188;2022-08-21T13:54:23;26.30;92.10
9939;DHT22;5008;50.656;7.188;2022-08-21T13:56:51;26.20;91.90
9939;DHT22;5008;50.656;7.188;2022-08-21T13:59:26;25.90;93.40
9939;DHT22;5008;50.656;7.188;2022-08-21T14:01:56;25.80;92.40
9939;DHT22;5008;50.656;7.188;2022-08-21T14:04:33;25.70;92.90
9939;DHT22;5008;50.656;7.188;2022-08-21T14:07:01;25.60;92.20
9939;DHT22;5008;50.656;7.188;2022-08-21T14:09:31;25.40;96.30
9939;DHT22;5008;50.656;7.188;2022-08-21T14:12:01;25.30;93.70
9939;DHT22;5008;50.656;7.188;2022-08-21T14:14:29;25.40;93.70
9939;DHT22;5008;50.656;7.188;2022-08-21T14:16:59;25.40;92.40
9939;DHT22;5008;50.656;7.188;2022-08-21T14:19:36;25.50;92.90
9939;DHT22;5008;50.656;7.188;2022-08-21T14:22:21;25.70;92.90
9939;DHT22;5008;50.656;7.188;2022-08-21T14:24:48;25.70;93.10
9939;DHT22;5008;50.656;7.188;2022-08-21T14:27:17;25.60;94.40
9939;DHT22;5008;50.656;7.188;2022-08-21T14:29:44;25.50;91.80
9939;DHT22;5008;50.656;7.188;2022-08-21T14:32:14;25.40;92.20
9939;DHT22;5008;50.656;7.188;2022-08-21T14:34:42;25.60;92.00
9939;DHT22;5008;50.656;7.188;2022-08-21T14:37:09;25.70;92.20
9939;DHT22;5008;50.656;7.188;2022-08-21T14:39:36;25.70;92.70
9939;DHT22;5008;50.656;7.188;2022-08-21T14:42:04;25.80;92.30
9939;DHT22;5008;50.656;7.188;2022-08-21T14:44:31;25.70;91.70
9939;DHT22;5008;50.656;7.188;2022-08-21T14:46:59;25.50;92.70
9939;DHT22;5008;50.656;7.188;2022-08-21T14:49:28;25.50;92.50
9939;DHT22;5008;50.656;7.188;2022-08-21T14:51:56;25.30;92.30
9939;DHT22;5008;50.656;7.188;2022-08-21T14:54:23;25.30;91.90
9939;DHT22;5008;50.656;7.188;2022-08-21T14:56:50;25.30;92.10
9939;DHT22;5008;50.656;7.188;2022-08-21T14:59:17;25.20;92.60
9939;DHT22;5008;50.656;7.188;2022-08-21T15:01:44;25.20;92.30
9939;DHT22;5008;50.656;7.188;2022-08-21T15:04:12;25.20;92.30
9939;DHT22;5008;50.656;7.188;2022-08-21T15:06:38;25.20;92.00
9939;DHT22;5008;50.656;7.188;2022-08-21T15:09:06;25.20;93.10
9939;DHT22;5008;50.656;7.188;2022-08-21T15:11:33;25.10;92.90
9939;DHT22;5008;50.656;7.188;2022-08-21T15:14:02;25.10;93.00
9939;DHT22;5008;50.656;7.188;2022-08-21T15:16:30;25.10;93.60
9939;DHT22;5008;50.656;7.188;2022-08-21T15:18:57;25.00;93.70
9939;DHT22;5008;50.656;7.188;2022-08-21T15:21:24;25.00;93.60
9939;DHT22;5008;50.656;7.188;2022-08-21T15:23:50;25.00;93.10
9939;DHT22;5008;50.656;7.188;2022-08-21T15:26:20;25.00;93.40
9939;DHT22;5008;50.656;7.188;2022-08-21T15:28:48;24.90;94.40
9939;DHT22;5008;50.656;7.188;2022-08-21T15:31:15;24.90;94.40
9939;DHT22;5008;50.656;7.188;2022-08-21T15:33:41;24.90;93.50
9939;DHT22;5008;50.656;7.188;2022-08-21T15:36:08;24.90;93.50
9939;DHT22;5008;50.656;7.188;2022-08-21T15:38:35;24.90;93.60
9939;DHT22;5008;50.656;7.188;2022-08-21T15:41:02;24.90;93.30
9939;DHT22;5008;50.656;7.188;2022-08-21T15:43:35;24.90;93.40
9939;DHT22;5008;50.656;7.188;2022-08-21T15:46:03;24.90;93.80
9939;DHT22;5008;50.656;7.188;2022-08-21T15:48:31;24.80;93.90
9939;DHT22;5008;50.656;7.188;2022-08-21T15:50:58;24.80;93.70
9939;DHT22;5008;50.656;7.188;2022-08-21T15:53:25;24.80;93.60
9939;DHT22;5008;50.656;7.188;2022-08-21T15:55:51;24.80;93.60
9939;DHT22;5008;50.656;7.188;2022-08-21T15:58:19;24.80;94.10
9939;DHT22;5008;50.656;7.188;2022-08-21T16:00:49;24.80;93.70
9939;DHT22;5008;50.656;7.188;2022-08-21T16:03:17;24.80;93.90
9939;DHT22;5008;50.656;7.188;2022-08-21T16:05:47;24.80;93.90
9939;DHT22;5008;50.656;7.188;2022-08-21T16:08:17;24.80;93.60
9939;DHT22;5008;50.656;7.188;2022-08-21T16:10:44;24.80;93.90
9939;DHT22;5008;50.656;7.188;2022-08-21T16:13:15;24.80;94.20
9939;DHT22;5008;50.656;7.188;2022-08-21T16:15:42;24.80;93.90
9939;DHT22;5008;50.656;7.188;2022-08-21T16:18:11;24.90;93.80
9939;DHT22;5008;50.656;7.188;2022-08-21T16:20:38;25.00;93.60
9939;DHT22;5008;50.656;7.188;2022-08-21T16:23:04;25.10;93.50